createdAt,value
2023-02-26T00:00:12.278Z,3.60
2023-02-26T00:02:39.382Z,3.60
2023-02-26T00:05:06.653Z,3.70
2023-02-26T00:07:35.062Z,3.70
2023-02-26T00:10:02.765Z,3.70
2023-02-26T00:12:30.539Z,3.70
2023-02-26T00:14:58.200Z,3.70
2023-02-26T00:17:42.905Z,3.60
2023-02-26T00:20:12.036Z,3.60
2023-02-26T00:22:41.204Z,3.60
2023-02-26T00:25:09.492Z,3.60
2023-02-26T00:27:36.870Z,3.50
2023-02-26T00:30:05.690Z,3.50
2023-02-26T00:32:33.797Z,3.50
2023-02-26T00:35:01.341Z,3.50
2023-02-26T00:37:38.390Z,3.40
2023-02-26T00:40:19.389Z,3.40
2023-02-26T00:42:46.870Z,3.40
2023-02-26T00:45:14.738Z,3.30
2023-02-26T00:47:49.470Z,3.40
2023-02-26T00:50:19.068Z,3.30
2023-02-26T00:52:57.516Z,3.30
2023-02-26T00:55:27.247Z,3.50
2023-02-26T00:57:55.250Z,3.50
2023-02-26T01:00:22.688Z,3.60
2023-02-26T01:02:50.975Z,3.50
2023-02-26T01:05:18.790Z,3.50
2023-02-26T01:07:51.980Z,3.50
2023-02-26T01:10:19.706Z,3.50
2023-02-26T01:12:48.675Z,3.50
2023-02-26T01:15:16.424Z,3.40
2023-02-26T01:17:48.847Z,3.40
2023-02-26T01:20:18.621Z,3.40
2023-02-26T01:22:52.398Z,3.40
2023-02-26T01:25:25.494Z,3.40
2023-02-26T01:27:56.917Z,3.40
2023-02-26T01:30:25.518Z,3.40
2023-02-26T01:32:59.216Z,3.40
2023-02-26T01:35:39.709Z,3.40
2023-02-26T01:38:17.266Z,3.30
2023-02-26T01:41:23.429Z,3.30
2023-02-26T01:44:00.204Z,3.20
2023-02-26T01:46:34.953Z,3.20
2023-02-26T01:49:02.909Z,3.20
2023-02-26T01:51:44.531Z,3.20
2023-02-26T01:54:11.477Z,3.20
2023-02-26T01:56:39.524Z,3.10
2023-02-26T01:59:11.692Z,3.10
2023-02-26T02:01:39.985Z,3.00
2023-02-26T02:04:11.412Z,3.00
2023-02-26T02:06:39.077Z,2.90
2023-02-26T02:09:07.334Z,2.90
2023-02-26T02:11:35.217Z,2.90
2023-02-26T02:14:16.996Z,2.90
2023-02-26T02:16:51.812Z,2.90
2023-02-26T02:19:44.618Z,2.90
2023-02-26T02:22:51.762Z,2.80
2023-02-26T02:25:39.025Z,2.80
2023-02-26T02:28:16.982Z,2.80
2023-02-26T02:30:56.874Z,2.80
2023-02-26T02:33:28.493Z,2.80
2023-02-26T02:36:00.967Z,2.80
2023-02-26T02:38:34.199Z,2.80
2023-02-26T02:41:08.262Z,2.80
2023-02-26T02:43:37.683Z,2.80
2023-02-26T02:46:08.098Z,2.70
2023-02-26T02:48:39.197Z,2.70
2023-02-26T02:51:10.073Z,2.80
2023-02-26T02:53:41.037Z,2.70
2023-02-26T02:56:12.673Z,2.70
2023-02-26T02:58:43.440Z,2.80
2023-02-26T03:01:17.608Z,2.80
2023-02-26T03:03:51.992Z,2.80
2023-02-26T03:06:18.875Z,2.80
2023-02-26T03:08:48.190Z,2.80
2023-02-26T03:11:15.488Z,2.80
2023-02-26T03:13:42.573Z,2.80
2023-02-26T03:16:29.634Z,2.70
2023-02-26T03:19:02.420Z,2.70
2023-02-26T03:21:34.076Z,2.80
2023-02-26T03:24:09.053Z,2.70
2023-02-26T03:26:42.741Z,2.70
2023-02-26T03:29:19.493Z,2.60
2023-02-26T03:31:54.191Z,2.60
2023-02-26T03:34:27.401Z,2.60
2023-02-26T03:36:58.039Z,2.60
2023-02-26T03:39:28.564Z,2.60
2023-02-26T03:42:02.343Z,2.60
2023-02-26T03:44:35.078Z,2.60
2023-02-26T03:47:06.941Z,2.50
2023-02-26T03:49:38.740Z,2.50
2023-02-26T03:52:06.794Z,2.50
2023-02-26T03:54:38.752Z,2.40
2023-02-26T03:57:05.814Z,2.40
2023-02-26T03:59:34.228Z,2.40
2023-02-26T04:02:05.651Z,2.40
2023-02-26T04:04:42.300Z,2.40
2023-02-26T04:07:10.492Z,2.30
2023-02-26T04:09:37.439Z,2.20
2023-02-26T04:12:04.573Z,2.20
2023-02-26T04:14:31.492Z,2.20
2023-02-26T04:16:58.441Z,2.20
2023-02-26T04:19:27.790Z,2.20
2023-02-26T04:21:54.747Z,2.10
2023-02-26T04:24:21.680Z,2.10
2023-02-26T04:26:48.533Z,2.20
2023-02-26T04:29:15.450Z,2.20
2023-02-26T04:31:42.488Z,2.20
2023-02-26T04:34:09.534Z,2.20
2023-02-26T04:36:37.723Z,2.20
2023-02-26T04:39:04.849Z,2.20
2023-02-26T04:41:31.692Z,2.10
2023-02-26T04:43:58.567Z,2.10
2023-02-26T04:46:25.805Z,2.10
2023-02-26T04:48:52.938Z,2.10
2023-02-26T04:51:19.854Z,2.10
2023-02-26T04:53:48.091Z,2.10
2023-02-26T04:56:15.403Z,2.10
2023-02-26T04:58:42.381Z,2.10
2023-02-26T05:01:09.295Z,2.00
2023-02-26T05:03:36.138Z,2.00
2023-02-26T05:06:02.980Z,2.00
2023-02-26T05:08:29.789Z,1.90
2023-02-26T05:10:57.998Z,2.00
2023-02-26T05:13:24.832Z,2.00
2023-02-26T05:15:53.743Z,2.00
2023-02-26T05:18:20.702Z,1.90
2023-02-26T05:20:52.519Z,1.90
2023-02-26T05:23:19.414Z,1.90
2023-02-26T05:25:46.612Z,2.00
2023-02-26T05:28:14.941Z,2.00
2023-02-26T05:30:42.054Z,1.90
2023-02-26T05:33:09.330Z,1.90
2023-02-26T05:35:36.172Z,1.90
2023-02-26T05:38:03.147Z,1.90
2023-02-26T05:40:30.170Z,1.90
2023-02-26T05:42:57.105Z,1.90
2023-02-26T05:45:25.344Z,1.90
2023-02-26T05:47:52.238Z,1.90
2023-02-26T05:50:19.288Z,1.80
2023-02-26T05:52:46.243Z,1.90
2023-02-26T05:55:13.222Z,1.90
2023-02-26T05:57:40.168Z,1.90
2023-02-26T06:00:08.905Z,1.90
2023-02-26T06:02:37.148Z,1.90
2023-02-26T06:05:04.740Z,1.90
2023-02-26T06:07:31.625Z,2.00
2023-02-26T06:09:58.567Z,2.00
2023-02-26T06:12:25.521Z,2.00
2023-02-26T06:14:52.367Z,2.00
2023-02-26T06:17:19.173Z,2.00
2023-02-26T06:19:47.398Z,2.00
2023-02-26T06:22:14.412Z,2.10
2023-02-26T06:24:41.221Z,2.00
2023-02-26T06:27:08.031Z,2.10
2023-02-26T06:29:36.301Z,2.00
2023-02-26T06:32:03.354Z,2.00
2023-02-26T06:34:30.364Z,2.00
2023-02-26T06:36:58.726Z,1.90
2023-02-26T06:39:25.635Z,1.90
2023-02-26T06:41:52.507Z,1.90
2023-02-26T06:44:19.485Z,1.90
2023-02-26T06:46:46.465Z,1.90
2023-02-26T06:49:13.333Z,1.80
2023-02-26T06:51:40.283Z,1.80
2023-02-26T06:54:08.653Z,1.70
2023-02-26T06:56:35.566Z,1.70
2023-02-26T06:59:02.419Z,1.70
2023-02-26T07:01:29.380Z,1.70
2023-02-26T07:03:56.235Z,1.70
2023-02-26T07:06:27.706Z,1.80
2023-02-26T07:09:05.635Z,1.80
2023-02-26T07:11:33.826Z,1.80
2023-02-26T07:14:01.549Z,1.80
2023-02-26T07:16:28.942Z,1.80
2023-02-26T07:18:55.884Z,1.80
2023-02-26T07:21:22.717Z,1.90
2023-02-26T07:23:49.563Z,1.90
2023-02-26T07:26:17.581Z,1.90
2023-02-26T07:28:45.854Z,1.90
2023-02-26T07:31:12.810Z,2.00
2023-02-26T07:33:39.725Z,2.00
2023-02-26T07:36:07.292Z,2.10
2023-02-26T07:38:34.233Z,2.10
2023-02-26T07:41:01.062Z,2.10
2023-02-26T07:43:27.952Z,2.20
2023-02-26T07:45:56.241Z,2.20
2023-02-26T07:48:23.124Z,2.30
2023-02-26T07:50:52.268Z,2.40
2023-02-26T07:53:19.350Z,2.50
2023-02-26T07:55:46.130Z,2.70
2023-02-26T07:58:12.957Z,3.00
2023-02-26T08:00:39.921Z,3.30
2023-02-26T08:03:08.100Z,3.70
2023-02-26T08:05:34.962Z,4.10
2023-02-26T08:08:02.076Z,4.70
2023-02-26T08:10:29.236Z,5.30
2023-02-26T08:12:56.057Z,5.50
2023-02-26T08:15:23.006Z,5.60
2023-02-26T08:17:52.255Z,5.60
2023-02-26T08:20:20.772Z,5.70
2023-02-26T08:22:47.620Z,6.20
2023-02-26T08:25:14.580Z,7.00
2023-02-26T08:27:41.460Z,7.80
2023-02-26T08:30:09.978Z,8.40
2023-02-26T08:32:37.522Z,9.10
2023-02-26T08:35:04.758Z,9.70
2023-02-26T08:37:32.929Z,10.20
2023-02-26T08:39:59.774Z,10.70
2023-02-26T08:42:26.707Z,11.00
2023-02-26T08:44:53.702Z,11.20
2023-02-26T08:47:28.538Z,11.50
2023-02-26T08:49:58.816Z,12.00
2023-02-26T08:52:26.042Z,12.60
2023-02-26T08:54:54.252Z,13.10
2023-02-26T08:57:21.113Z,13.50
2023-02-26T08:59:47.931Z,13.70
2023-02-26T09:02:15.096Z,14.10
2023-02-26T09:04:41.991Z,14.50
2023-02-26T09:07:08.913Z,14.80
2023-02-26T09:09:35.818Z,14.90
2023-02-26T09:12:04.489Z,15.20
2023-02-26T09:14:31.380Z,15.50
2023-02-26T09:16:58.695Z,15.70
2023-02-26T09:19:25.635Z,15.90
2023-02-26T09:21:52.510Z,16.30
2023-02-26T09:24:19.468Z,16.80
2023-02-26T09:26:46.464Z,17.30
2023-02-26T09:29:14.900Z,17.70
2023-02-26T09:31:42.072Z,17.90
2023-02-26T09:34:11.159Z,18.00
2023-02-26T09:36:38.801Z,17.60
2023-02-26T09:39:06.313Z,17.10
2023-02-26T09:41:36.720Z,16.80
2023-02-26T09:44:16.667Z,16.60
2023-02-26T09:46:50.849Z,16.30
2023-02-26T09:49:29.048Z,16.20
2023-02-26T09:52:01.857Z,16.20
2023-02-26T09:54:32.375Z,16.30
2023-02-26T09:57:01.193Z,16.30
2023-02-26T09:59:32.426Z,16.40
2023-02-26T10:02:05.436Z,16.30
2023-02-26T10:04:49.491Z,16.40
2023-02-26T10:07:23.728Z,16.60
2023-02-26T10:10:01.723Z,16.50
2023-02-26T10:12:30.609Z,16.20
2023-02-26T10:15:02.500Z,15.40
2023-02-26T10:17:34.482Z,15.30
2023-02-26T10:20:05.037Z,15.40
2023-02-26T10:22:36.238Z,15.40
2023-02-26T10:25:06.694Z,14.90
2023-02-26T10:27:56.812Z,14.00
2023-02-26T10:30:32.148Z,13.20
2023-02-26T10:33:05.447Z,12.50
2023-02-26T10:35:37.167Z,12.30
2023-02-26T10:38:10.778Z,12.40
2023-02-26T10:40:44.690Z,13.10
2023-02-26T10:43:16.697Z,14.00
2023-02-26T10:45:57.893Z,15.10
2023-02-26T10:48:42.881Z,15.50
2023-02-26T10:51:14.335Z,15.40
2023-02-26T10:53:45.147Z,15.20
2023-02-26T10:56:17.246Z,15.20
2023-02-26T10:58:44.439Z,15.50
2023-02-26T11:01:16.804Z,15.40
2023-02-26T11:03:46.517Z,15.20
2023-02-26T11:06:19.023Z,14.70
2023-02-26T11:08:48.879Z,14.10
2023-02-26T11:11:37.818Z,13.70
2023-02-26T11:14:04.741Z,13.40
2023-02-26T11:16:33.326Z,13.00
2023-02-26T11:19:01.252Z,12.50
2023-02-26T11:21:30.984Z,11.80
2023-02-26T11:24:01.899Z,11.10
2023-02-26T11:26:34.662Z,10.40
2023-02-26T11:29:02.075Z,9.90
2023-02-26T11:31:31.335Z,9.60
2023-02-26T11:34:03.356Z,9.30
2023-02-26T11:36:32.310Z,9.20
2023-02-26T11:39:07.783Z,9.00
2023-02-26T11:41:38.791Z,9.00
2023-02-26T11:44:07.723Z,9.00
2023-02-26T11:46:39.836Z,8.90
2023-02-26T11:49:12.558Z,8.90
2023-02-26T11:51:43.522Z,8.70
2023-02-26T11:54:22.053Z,8.60
2023-02-26T11:56:49.010Z,8.40
2023-02-26T11:59:20.201Z,8.40
2023-02-26T12:01:48.120Z,8.50
2023-02-26T12:04:19.966Z,8.50
2023-02-26T12:06:49.220Z,8.50
2023-02-26T12:09:16.202Z,8.40
2023-02-26T12:12:08.322Z,8.30
2023-02-26T12:14:48.568Z,8.20
2023-02-26T12:17:32.484Z,8.20
2023-02-26T12:20:19.695Z,8.10
2023-02-26T12:23:02.159Z,8.00
2023-02-26T12:25:51.208Z,7.80
2023-02-26T12:28:43.809Z,7.50
2023-02-26T12:31:26.398Z,7.40
2023-02-26T12:34:07.092Z,7.30
2023-02-26T12:36:49.700Z,7.20
2023-02-26T12:39:30.662Z,7.20
2023-02-26T12:42:09.064Z,7.10
2023-02-26T12:45:04.165Z,7.00
2023-02-26T12:47:42.262Z,6.90
2023-02-26T12:50:24.142Z,6.90
2023-02-26T12:53:14.209Z,7.00
2023-02-26T12:55:52.246Z,6.90
2023-02-26T12:58:49.626Z,6.80
2023-02-26T13:01:33.680Z,6.80
2023-02-26T13:04:49.608Z,6.80
2023-02-26T13:07:49.385Z,7.00
2023-02-26T13:10:28.158Z,7.10
2023-02-26T13:13:09.475Z,7.30
2023-02-26T13:15:50.086Z,7.20
2023-02-26T13:18:26.439Z,7.10
2023-02-26T13:21:00.399Z,7.10
2023-02-26T13:23:32.571Z,7.00
2023-02-26T13:26:04.560Z,7.00
2023-02-26T13:28:40.945Z,7.00
2023-02-26T13:31:12.723Z,7.10
2023-02-26T13:33:41.225Z,7.10
2023-02-26T13:36:08.748Z,7.00
2023-02-26T13:38:51.903Z,7.00
2023-02-26T13:41:27.680Z,6.90
2023-02-26T13:44:09.367Z,6.80
2023-02-26T13:47:06.708Z,6.70
2023-02-26T13:49:49.079Z,6.50
2023-02-26T13:52:25.819Z,6.40
2023-02-26T13:54:53.448Z,6.20
2023-02-26T13:57:34.535Z,6.10
2023-02-26T14:00:12.654Z,6.10
2023-02-26T14:02:51.925Z,6.10
2023-02-26T14:05:32.798Z,6.10
2023-02-26T14:08:25.298Z,6.20
2023-02-26T14:10:58.864Z,6.30
2023-02-26T14:13:35.932Z,6.60
2023-02-26T14:16:11.435Z,6.70
2023-02-26T14:18:42.768Z,6.80
2023-02-26T14:21:35.929Z,6.70
2023-02-26T14:24:06.522Z,7.10
2023-02-26T14:26:36.755Z,7.20
2023-02-26T14:29:19.646Z,7.20
2023-02-26T14:31:54.988Z,7.40
2023-02-26T14:34:24.407Z,7.40
2023-02-26T14:36:54.106Z,7.60
2023-02-26T14:39:28.360Z,7.60
2023-02-26T14:42:00.168Z,7.70
2023-02-26T14:44:31.052Z,7.80
2023-02-26T14:46:58.972Z,7.70
2023-02-26T14:49:29.772Z,7.60
2023-02-26T14:52:19.476Z,7.50
2023-02-26T14:55:12.272Z,7.30
2023-02-26T14:57:47.821Z,7.10
2023-02-26T15:00:27.493Z,7.00
2023-02-26T15:03:22.446Z,7.00
2023-02-26T15:06:04.370Z,6.90
2023-02-26T15:08:47.486Z,6.80
2023-02-26T15:11:42.900Z,6.80
2023-02-26T15:14:44.710Z,6.70
2023-02-26T15:17:24.726Z,6.70
2023-02-26T15:20:06.277Z,6.70
2023-02-26T15:22:48.525Z,6.80
2023-02-26T15:25:25.677Z,6.80
2023-02-26T15:27:53.777Z,6.90
2023-02-26T15:30:21.253Z,6.90
2023-02-26T15:32:49.711Z,6.80
2023-02-26T15:35:18.497Z,6.70
2023-02-26T15:37:49.705Z,6.50
2023-02-26T15:40:17.185Z,6.40
2023-02-26T15:42:45.394Z,6.20
2023-02-26T15:45:18.750Z,6.10
2023-02-26T15:47:46.461Z,6.00
2023-02-26T15:50:17.214Z,5.90
2023-02-26T15:52:44.282Z,5.80
2023-02-26T15:55:17.054Z,5.70
2023-02-26T15:57:44.439Z,5.60
2023-02-26T16:00:24.679Z,5.50
2023-02-26T16:02:53.601Z,5.50
2023-02-26T16:05:21.917Z,5.40
2023-02-26T16:07:49.011Z,5.40
2023-02-26T16:10:27.464Z,5.40
2023-02-26T16:12:55.321Z,5.40
2023-02-26T16:15:29.649Z,5.50
2023-02-26T16:17:57.524Z,5.60
2023-02-26T16:20:28.595Z,5.60
2023-02-26T16:22:58.767Z,5.60
2023-02-26T16:25:29.937Z,5.70
2023-02-26T16:28:00.793Z,5.70
2023-02-26T16:30:33.418Z,5.70
2023-02-26T16:33:00.925Z,5.70
2023-02-26T16:35:34.842Z,5.70
2023-02-26T16:38:16.406Z,5.60
2023-02-26T16:40:45.450Z,5.50
2023-02-26T16:43:49.738Z,5.50
2023-02-26T16:46:22.532Z,5.40
2023-02-26T16:48:53.079Z,5.40
2023-02-26T16:51:24.264Z,5.30
2023-02-26T16:53:55.470Z,5.20
2023-02-26T16:56:27.289Z,5.10
2023-02-26T16:58:58.475Z,5.00
2023-02-26T17:01:25.777Z,5.00
2023-02-26T17:03:59.977Z,4.90
2023-02-26T17:06:31.422Z,4.90
2023-02-26T17:09:00.423Z,4.90
2023-02-26T17:11:30.252Z,4.80
2023-02-26T17:14:18.860Z,4.80
2023-02-26T17:16:46.809Z,4.80
2023-02-26T17:19:13.947Z,4.80
2023-02-26T17:21:45.130Z,4.80
2023-02-26T17:24:17.138Z,4.70
2023-02-26T17:26:44.545Z,4.70
2023-02-26T17:29:18.780Z,4.70
2023-02-26T17:31:46.068Z,4.70
2023-02-26T17:34:13.170Z,4.60
2023-02-26T17:36:40.085Z,4.60
2023-02-26T17:39:11.843Z,4.50
2023-02-26T17:41:38.883Z,4.50
2023-02-26T17:44:05.932Z,4.40
2023-02-26T17:46:32.770Z,4.40
2023-02-26T17:48:59.723Z,4.40
2023-02-26T17:51:27.346Z,4.40
2023-02-26T17:53:54.591Z,4.50
2023-02-26T17:56:28.512Z,4.50
2023-02-26T17:58:56.826Z,4.50
2023-02-26T18:01:28.891Z,4.50
2023-02-26T18:03:56.463Z,4.60
2023-02-26T18:06:24.755Z,4.50
2023-02-26T18:08:52.305Z,4.50
2023-02-26T18:11:20.455Z,4.50
2023-02-26T18:13:48.750Z,4.40
2023-02-26T18:16:19.161Z,4.40
2023-02-26T18:18:46.502Z,4.40
2023-02-26T18:21:14.775Z,4.40
2023-02-26T18:23:41.621Z,4.40
2023-02-26T18:26:09.876Z,4.30
2023-02-26T18:28:37.036Z,4.30
2023-02-26T18:31:09.201Z,4.30
2023-02-26T18:33:38.537Z,4.30
2023-02-26T18:36:06.467Z,4.30
2023-02-26T18:38:33.343Z,4.30
2023-02-26T18:41:02.227Z,4.20
2023-02-26T18:43:29.629Z,4.20
2023-02-26T18:46:01.146Z,4.20
2023-02-26T18:48:29.853Z,4.10
2023-02-26T18:50:56.781Z,4.10
2023-02-26T18:53:24.576Z,4.10
2023-02-26T18:55:53.073Z,4.00
2023-02-26T18:58:20.090Z,4.00
2023-02-26T19:00:47.366Z,4.00
2023-02-26T19:03:14.274Z,4.00
2023-02-26T19:05:42.507Z,4.00
2023-02-26T19:08:09.913Z,4.00
2023-02-26T19:10:37.265Z,4.00
2023-02-26T19:13:04.449Z,4.00
2023-02-26T19:15:31.859Z,4.00
2023-02-26T19:17:58.763Z,4.00
2023-02-26T19:20:25.774Z,4.00
2023-02-26T19:22:54.736Z,4.00
2023-02-26T19:25:24.004Z,4.00
2023-02-26T19:27:53.289Z,4.00
2023-02-26T19:30:21.217Z,4.00
2023-02-26T19:32:48.104Z,4.00
2023-02-26T19:35:15.159Z,4.00
2023-02-26T19:37:42.070Z,3.90
2023-02-26T19:40:16.280Z,3.90
2023-02-26T19:42:43.575Z,3.90
2023-02-26T19:45:11.065Z,3.90
2023-02-26T19:47:38.523Z,3.90
2023-02-26T19:50:06.591Z,4.00
2023-02-26T19:52:33.926Z,4.00
2023-02-26T19:55:01.177Z,4.00
2023-02-26T19:57:29.683Z,4.00
2023-02-26T19:59:56.561Z,4.00
2023-02-26T20:02:23.529Z,4.00
2023-02-26T20:04:50.486Z,3.90
2023-02-26T20:07:17.328Z,3.90
2023-02-26T20:09:44.239Z,3.90
2023-02-26T20:12:11.079Z,3.90
2023-02-26T20:14:39.389Z,3.90
2023-02-26T20:17:06.289Z,3.90
2023-02-26T20:19:33.171Z,3.90
2023-02-26T20:22:00.106Z,3.90
2023-02-26T20:24:26.946Z,3.90
2023-02-26T20:26:53.903Z,3.90
2023-02-26T20:29:21.513Z,3.80
2023-02-26T20:31:49.988Z,3.80
2023-02-26T20:34:19.302Z,3.70
2023-02-26T20:36:48.220Z,3.70
2023-02-26T20:39:15.428Z,3.70
2023-02-26T20:41:42.494Z,3.60
2023-02-26T20:44:09.316Z,3.60
2023-02-26T20:46:38.950Z,3.60
2023-02-26T20:49:11.330Z,3.60
2023-02-26T20:51:39.280Z,3.50
2023-02-26T20:54:06.275Z,3.50
2023-02-26T20:56:33.488Z,3.50
2023-02-26T20:59:00.873Z,3.40
2023-02-26T21:01:35.313Z,3.40
2023-02-26T21:04:03.490Z,3.40
2023-02-26T21:06:32.400Z,3.40
2023-02-26T21:09:00.344Z,3.40
2023-02-26T21:11:30.962Z,3.40
2023-02-26T21:13:57.944Z,3.30
2023-02-26T21:16:25.198Z,3.30
2023-02-26T21:18:52.377Z,3.20
2023-02-26T21:21:19.249Z,3.20
2023-02-26T21:23:47.653Z,3.20
2023-02-26T21:26:14.588Z,3.10
2023-02-26T21:28:41.534Z,3.10
2023-02-26T21:31:08.438Z,3.10
2023-02-26T21:33:35.384Z,3.10
2023-02-26T21:36:02.231Z,3.00
2023-02-26T21:38:29.153Z,3.00
2023-02-26T21:40:57.407Z,3.00
2023-02-26T21:43:24.312Z,3.00
2023-02-26T21:45:51.214Z,3.00
2023-02-26T21:48:18.126Z,3.00
2023-02-26T21:50:47.388Z,2.90
2023-02-26T21:53:14.542Z,2.90
2023-02-26T21:55:41.450Z,2.90
2023-02-26T21:58:09.655Z,3.00
2023-02-26T22:00:36.490Z,3.00
2023-02-26T22:03:03.685Z,3.00
2023-02-26T22:05:30.591Z,3.00
2023-02-26T22:07:57.473Z,3.00
2023-02-26T22:10:24.333Z,3.00
2023-02-26T22:12:51.168Z,3.00
2023-02-26T22:15:19.501Z,3.00
2023-02-26T22:17:46.340Z,3.00
2023-02-26T22:20:14.097Z,3.00
2023-02-26T22:22:41.116Z,3.00
2023-02-26T22:25:08.921Z,2.90
2023-02-26T22:27:35.809Z,2.90
2023-02-26T22:30:02.745Z,2.90
2023-02-26T22:32:31.035Z,2.90
2023-02-26T22:34:57.966Z,2.80
2023-02-26T22:37:24.892Z,2.80
2023-02-26T22:39:51.759Z,2.80
2023-02-26T22:42:18.732Z,2.70
2023-02-26T22:44:45.573Z,2.70
2023-02-26T22:47:12.383Z,2.70
2023-02-26T22:49:40.571Z,2.70
2023-02-26T22:52:07.922Z,2.70
2023-02-26T22:54:35.801Z,2.70
2023-02-26T22:57:02.632Z,2.70
2023-02-26T22:59:29.529Z,2.70
2023-02-26T23:01:56.481Z,2.70
2023-02-26T23:04:23.483Z,2.70
2023-02-26T23:06:51.766Z,2.70
2023-02-26T23:09:18.642Z,2.70
2023-02-26T23:11:45.633Z,2.70
2023-02-26T23:14:12.520Z,2.70
2023-02-26T23:16:39.668Z,2.70
2023-02-26T23:19:06.545Z,2.70
2023-02-26T23:21:33.811Z,2.70
2023-02-26T23:24:02.063Z,2.70
2023-02-26T23:26:29.142Z,2.70
2023-02-26T23:28:56.244Z,2.60
2023-02-26T23:31:23.268Z,2.60
2023-02-26T23:33:50.293Z,2.40
2023-02-26T23:36:17.233Z,2.60
2023-02-26T23:38:44.013Z,2.60
2023-02-26T23:41:12.212Z,2.60
2023-02-26T23:43:39.012Z,2.60
2023-02-26T23:46:05.846Z,2.60
2023-02-26T23:48:32.781Z,2.60
2023-02-26T23:50:59.541Z,2.60
2023-02-26T23:53:26.399Z,2.60
2023-02-26T23:55:58.401Z,2.60
2023-02-26T23:58:27.614Z,2.50
